Time;durP1;ratioP1;P1;durP2;ratioP2;P2;SDS_P1;SDS_P2;PMS_P1;PMS_P2;Temp;Humidity;BMP_temperature;BMP_pressure;BME280_temperature;BME280_humidity;BME280_pressure;Samples;Min_cycle;Max_cycle;Signal;HPM_P1;HPM_P2
2022/05/10 00:02:24;;;;;;;;;;;19.00;57.20;;;;;;5048632;28;1342;-70
2022/05/10 00:04:50;;;;;;;;;;;19.00;57.20;;;;;;5042849;28;1542;-70
2022/05/10 00:07:15;;;;;;;;;;;19.00;57.20;;;;;;5051395;28;1403;-70
2022/05/10 00:09:41;;;;;;;;;;;19.00;57.20;;;;;;5055302;28;1414;-71
2022/05/10 00:12:06;;;;;;;;;;;19.00;57.20;;;;;;5055350;28;1969;-70
2022/05/10 00:14:32;;;;;;;;;;;19.00;57.20;;;;;;5054972;28;1306;-70
2022/05/10 00:16:57;;;;;;;;;;;19.00;57.20;;;;;;5051863;28;2170;-70
2022/05/10 00:19:27;;;;;;;;;;;19.00;57.20;;;;;;5051333;28;1088;-71
2022/05/10 00:21:52;;;;;;;;;;;19.00;57.30;;;;;;5047902;28;1208;-70
2022/05/10 00:24:18;;;;;;;;;;;19.00;57.30;;;;;;5051104;28;2348;-70
2022/05/10 00:26:43;;;;;;;;;;;19.00;57.30;;;;;;5038214;28;1636;-71
2022/05/10 00:29:09;;;;;;;;;;;19.00;57.30;;;;;;5052451;28;1448;-70
2022/05/10 00:31:34;;;;;;;;;;;19.00;57.30;;;;;;5046513;28;1604;-71
2022/05/10 00:34:00;;;;;;;;;;;19.00;57.30;;;;;;5050048;28;1902;-70
2022/05/10 00:36:25;;;;;;;;;;;19.00;57.90;;;;;;5054675;28;1456;-71
2022/05/10 00:38:50;;;;;;;;;;;19.00;57.30;;;;;;5036266;28;1547;-70
2022/05/10 00:41:19;;;;;;;;;;;19.00;57.30;;;;;;5063737;28;1544;-70
2022/05/10 00:43:45;;;;;;;;;;;19.00;57.30;;;;;;5048057;28;1449;-70
2022/05/10 00:46:11;;;;;;;;;;;19.00;57.40;;;;;;5054444;28;1383;-70
2022/05/10 00:48:37;;;;;;;;;;;19.00;57.40;;;;;;5054594;28;1723;-70
2022/05/10 00:51:11;;;;;;;;;;;19.00;57.40;;;;;;5054781;28;1260;-70
2022/05/10 00:53:51;;;;;;;;;;;19.00;57.40;;;;;;5070558;28;1903;-71
2022/05/10 00:56:22;;;;;;;;;;;19.00;57.40;;;;;;5054435;28;1679;-70
2022/05/10 00:59:01;;;;;;;;;;;19.00;57.40;;;;;;5054062;28;1583;-70
2022/05/10 01:01:33;;;;;;;;;;;19.00;57.40;;;;;;5045005;28;1314;-69
2022/05/10 01:04:08;;;;;;;;;;;19.00;57.40;;;;;;5060333;28;1576;-70
2022/05/10 01:06:34;;;;;;;;;;;19.00;57.50;;;;;;5055474;28;1537;-70
2022/05/10 01:09:06;;;;;;;;;;;19.00;57.50;;;;;;5053900;28;1597;-70
2022/05/10 01:11:39;;;;;;;;;;;19.00;57.50;;;;;;5053398;28;1508;-70
2022/05/10 01:14:09;;;;;;;;;;;19.00;57.50;;;;;;5053943;28;1681;-70
2022/05/10 01:16:34;;;;;;;;;;;19.00;57.50;;;;;;5054063;28;1658;-71
2022/05/10 01:19:00;;;;;;;;;;;19.00;57.50;;;;;;5052297;28;1395;-71
2022/05/10 01:21:34;;;;;;;;;;;19.00;57.50;;;;;;5052436;28;2040;-70
2022/05/10 01:24:00;;;;;;;;;;;19.00;57.50;;;;;;5046237;28;1256;-70
2022/05/10 01:26:48;;;;;;;;;;;19.00;57.50;;;;;;5054947;28;1299;-70
2022/05/10 01:29:16;;;;;;;;;;;19.00;57.50;;;;;;5049517;28;1388;-71
2022/05/10 01:31:42;;;;;;;;;;;19.00;57.60;;;;;;5053243;28;1946;-70
2022/05/10 01:34:13;;;;;;;;;;;19.00;57.60;;;;;;5053234;28;1361;-70
2022/05/10 01:36:49;;;;;;;;;;;19.00;57.60;;;;;;5047071;28;1132;-70
2022/05/10 01:39:25;;;;;;;;;;;19.00;57.60;;;;;;5069423;28;1312;-71
2022/05/10 01:42:05;;;;;;;;;;;19.00;57.60;;;;;;5052557;28;1321;-70
2022/05/10 01:44:46;;;;;;;;;;;19.00;57.60;;;;;;5054109;28;1248;-70
2022/05/10 01:47:12;;;;;;;;;;;19.00;57.60;;;;;;5054333;28;1333;-71
2022/05/10 01:49:58;;;;;;;;;;;19.00;57.60;;;;;;5051758;28;2093;-70
2022/05/10 01:52:25;;;;;;;;;;;19.00;57.60;;;;;;5048163;28;2106;-69
2022/05/10 01:54:58;;;;;;;;;;;19.00;57.70;;;;;;5063607;28;1726;-71
2022/05/10 01:57:23;;;;;;;;;;;19.00;57.70;;;;;;5045178;28;1184;-69
2022/05/10 01:59:53;;;;;;;;;;;19.00;57.70;;;;;;5040554;28;1159;-69
2022/05/10 02:02:19;;;;;;;;;;;19.00;57.70;;;;;;5040942;28;1304;-71
2022/05/10 02:04:45;;;;;;;;;;;19.00;57.70;;;;;;5044370;28;1196;-69
2022/05/10 02:07:15;;;;;;;;;;;19.00;57.70;;;;;;5060422;28;1298;-69
2022/05/10 02:09:56;;;;;;;;;;;19.00;57.70;;;;;;5061868;28;1346;-69
2022/05/10 02:12:31;;;;;;;;;;;19.00;57.70;;;;;;5058792;28;1906;-69
2022/05/10 02:15:05;;;;;;;;;;;19.00;57.70;;;;;;5044075;28;1281;-70
2022/05/10 02:17:37;;;;;;;;;;;19.00;57.70;;;;;;5043460;28;1204;-70
2022/05/10 02:20:05;;;;;;;;;;;19.00;57.70;;;;;;5048136;28;2396;-70
2022/05/10 02:22:30;;;;;;;;;;;19.00;57.70;;;;;;5037574;28;2082;-70
2022/05/10 02:24:57;;;;;;;;;;;19.00;57.80;;;;;;5044190;28;1995;-70
2022/05/10 02:27:24;;;;;;;;;;;19.00;57.80;;;;;;5059889;28;1296;-71
2022/05/10 02:29:55;;;;;;;;;;;19.00;57.80;;;;;;5058827;28;1243;-69
2022/05/10 02:35:12;;;;;;;;;;;19.00;57.80;;;;;;5054404;28;2091;-70
2022/05/10 02:37:37;;;;;;;;;;;19.00;57.80;;;;;;5050397;28;1310;-70
2022/05/10 02:40:03;;;;;;;;;;;19.00;57.80;;;;;;5051584;28;1165;-70
2022/05/10 02:42:29;;;;;;;;;;;19.00;57.80;;;;;;5039747;28;2159;-70
2022/05/10 02:44:55;;;;;;;;;;;19.00;57.80;;;;;;5047003;28;1134;-70
2022/05/10 02:47:35;;;;;;;;;;;19.00;57.90;;;;;;5044719;28;1412;-70
2022/05/10 02:50:01;;;;;;;;;;;19.00;57.90;;;;;;5052495;28;1110;-70
2022/05/10 02:52:26;;;;;;;;;;;19.00;57.90;;;;;;5028611;28;1968;-69
2022/05/10 02:54:55;;;;;;;;;;;19.00;57.90;;;;;;5047011;28;1294;-70
2022/05/10 02:57:22;;;;;;;;;;;19.00;57.90;;;;;;5047609;28;1204;-70
2022/05/10 02:59:47;;;;;;;;;;;19.00;57.90;;;;;;5051695;28;1272;-69
2022/05/10 03:02:14;;;;;;;;;;;19.00;57.90;;;;;;5051666;28;1441;-70
2022/05/10 03:04:41;;;;;;;;;;;19.00;57.90;;;;;;5068354;28;1214;-71
2022/05/10 03:07:07;;;;;;;;;;;19.00;57.90;;;;;;5068421;28;1280;-71
2022/05/10 03:09:32;;;;;;;;;;;19.00;57.90;;;;;;5050708;28;1489;-71
2022/05/10 03:11:58;;;;;;;;;;;19.00;57.90;;;;;;5051660;28;1957;-71
2022/05/10 03:14:23;;;;;;;;;;;19.00;58.00;;;;;;5051237;28;1181;-71
2022/05/10 03:16:49;;;;;;;;;;;19.00;58.00;;;;;;5053024;28;1261;-71
2022/05/10 03:19:16;;;;;;;;;;;19.00;58.00;;;;;;5051974;28;1161;-71
2022/05/10 03:21:42;;;;;;;;;;;19.00;58.00;;;;;;5051510;28;1342;-71
2022/05/10 03:24:07;;;;;;;;;;;19.00;58.00;;;;;;5034554;28;1307;-71
2022/05/10 03:26:33;;;;;;;;;;;19.00;58.00;;;;;;5052515;28;1356;-70
2022/05/10 03:28:58;;;;;;;;;;;19.00;58.00;;;;;;5052336;28;1391;-70
2022/05/10 03:31:25;;;;;;;;;;;19.00;58.00;;;;;;5078796;22;1909;-69
2022/05/10 03:34:54;;;;;;;;;;;19.00;58.10;;;;;;5054374;28;1941;-70
2022/05/10 03:36:38;;;;;;;;;;;19.00;58.00;;;;;;5067476;28;1264;-69
2022/05/10 03:39:03;;;;;;;;;;;19.00;58.00;;;;;;5071575;28;1255;-68
2022/05/10 03:41:29;;;;;;;;;;;19.00;58.10;;;;;;5048866;28;1387;-68
2022/05/10 03:43:54;;;;;;;;;;;19.00;58.10;;;;;;5056567;28;1271;-69
2022/05/10 03:46:20;;;;;;;;;;;19.00;58.10;;;;;;5052420;28;1326;-69
2022/05/10 03:48:45;;;;;;;;;;;19.00;58.10;;;;;;5047503;28;1282;-68
2022/05/10 03:51:10;;;;;;;;;;;19.00;58.10;;;;;;5051819;28;1344;-68
2022/05/10 03:53:36;;;;;;;;;;;19.00;58.10;;;;;;5052318;28;1973;-68
2022/05/10 03:56:01;;;;;;;;;;;19.00;58.10;;;;;;5045701;28;1783;-68
2022/05/10 03:58:27;;;;;;;;;;;19.00;58.10;;;;;;5060770;28;1822;-68
2022/05/10 04:00:52;;;;;;;;;;;19.00;58.10;;;;;;5060025;28;1209;-68
2022/05/10 04:03:18;;;;;;;;;;;19.00;58.20;;;;;;5066563;28;1353;-68
2022/05/10 04:05:43;;;;;;;;;;;19.00;58.20;;;;;;5043553;28;1388;-68
2022/05/10 04:08:08;;;;;;;;;;;19.00;58.20;;;;;;5054949;28;1294;-71
2022/05/10 04:10:34;;;;;;;;;;;19.00;58.20;;;;;;5050858;28;1652;-69
2022/05/10 04:12:59;;;;;;;;;;;19.00;58.20;;;;;;5051009;28;1910;-67
2022/05/10 04:15:25;;;;;;;;;;;19.00;58.20;;;;;;5051682;28;1313;-66
2022/05/10 04:17:52;;;;;;;;;;;19.00;58.20;;;;;;5048132;28;1315;-67
2022/05/10 04:20:17;;;;;;;;;;;19.00;58.50;;;;;;5061131;28;1220;-66
2022/05/10 04:22:43;;;;;;;;;;;19.00;58.20;;;;;;5046806;28;1377;-68
2022/05/10 04:25:08;;;;;;;;;;;19.00;58.20;;;;;;5051161;28;1191;-67
2022/05/10 04:27:35;;;;;;;;;;;19.00;58.20;;;;;;5064351;28;1099;-68
2022/05/10 04:30:00;;;;;;;;;;;19.00;58.30;;;;;;5050349;28;1263;-68
2022/05/10 04:32:26;;;;;;;;;;;19.00;58.20;;;;;;5053116;28;1969;-71
2022/05/10 04:34:51;;;;;;;;;;;19.00;58.30;;;;;;5056204;28;1295;-70
2022/05/10 04:37:17;;;;;;;;;;;19.00;58.20;;;;;;5050997;28;1515;-69
2022/05/10 04:42:26;;;;;;;;;;;19.00;58.30;;;;;;5050596;28;1308;-69
2022/05/10 04:44:51;;;;;;;;;;;19.00;58.30;;;;;;5051501;28;1276;-67
2022/05/10 04:47:17;;;;;;;;;;;19.00;58.30;;;;;;5055423;28;1262;-68
2022/05/10 04:49:42;;;;;;;;;;;19.00;58.30;;;;;;5049702;28;1246;-68
2022/05/10 04:52:08;;;;;;;;;;;19.00;58.30;;;;;;5049353;28;1945;-68
2022/05/10 04:54:34;;;;;;;;;;;19.00;58.30;;;;;;5052995;28;1269;-69
2022/05/10 04:57:00;;;;;;;;;;;19.00;58.30;;;;;;5059096;28;1376;-68
2022/05/10 04:59:25;;;;;;;;;;;19.00;58.40;;;;;;5073523;28;1282;-69
2022/05/10 05:01:50;;;;;;;;;;;18.90;58.30;;;;;;5070427;28;1353;-70
2022/05/10 05:04:16;;;;;;;;;;;19.00;58.40;;;;;;5055123;28;1275;-68
2022/05/10 05:06:41;;;;;;;;;;;19.00;58.40;;;;;;5055987;28;1250;-70
2022/05/10 05:09:07;;;;;;;;;;;18.90;58.30;;;;;;5056253;28;1450;-70
2022/05/10 05:11:32;;;;;;;;;;;19.00;58.40;;;;;;5053635;28;1358;-70
2022/05/10 05:13:58;;;;;;;;;;;19.00;58.40;;;;;;5064590;28;1883;-69
2022/05/10 05:16:23;;;;;;;;;;;18.90;58.40;;;;;;5053881;28;1289;-68
2022/05/10 05:18:48;;;;;;;;;;;18.90;58.40;;;;;;5055811;28;1064;-67
2022/05/10 05:21:14;;;;;;;;;;;19.00;58.40;;;;;;5049349;28;1388;-68
2022/05/10 05:23:39;;;;;;;;;;;19.00;58.40;;;;;;5053000;28;1355;-71
2022/05/10 05:26:05;;;;;;;;;;;19.00;58.40;;;;;;5053678;28;1242;-66
2022/05/10 05:28:31;;;;;;;;;;;19.00;58.40;;;;;;5054010;28;1465;-66
2022/05/10 05:30:56;;;;;;;;;;;18.90;58.40;;;;;;5049051;28;1141;-68
2022/05/10 05:33:22;;;;;;;;;;;19.00;58.50;;;;;;5063064;28;1906;-74
2022/05/10 05:35:47;;;;;;;;;;;18.90;58.40;;;;;;5038855;28;1381;-70
2022/05/10 05:38:13;;;;;;;;;;;18.90;58.40;;;;;;5073997;28;1275;-68
2022/05/10 05:40:38;;;;;;;;;;;19.00;58.40;;;;;;5054993;28;1290;-71
2022/05/10 05:43:04;;;;;;;;;;;19.00;58.50;;;;;;5072650;28;1388;-71
2022/05/10 05:45:29;;;;;;;;;;;18.90;58.40;;;;;;5073607;28;1369;-66
2022/05/10 05:47:55;;;;;;;;;;;19.00;58.50;;;;;;5072956;28;1266;-69
2022/05/10 05:50:21;;;;;;;;;;;19.00;58.50;;;;;;5072293;28;1333;-70
2022/05/10 05:52:47;;;;;;;;;;;18.90;58.50;;;;;;5057068;28;1898;-70
2022/05/10 05:55:12;;;;;;;;;;;19.00;58.50;;;;;;5056090;28;1353;-73
2022/05/10 05:57:38;;;;;;;;;;;18.90;58.40;;;;;;5078014;28;1114;-72
2022/05/10 06:00:05;;;;;;;;;;;18.90;59.10;;;;;;5073474;28;1292;-71
2022/05/10 06:02:30;;;;;;;;;;;18.90;58.50;;;;;;5046044;28;1301;-71
2022/05/10 06:04:56;;;;;;;;;;;19.00;58.60;;;;;;5052855;28;1358;-71
2022/05/10 06:07:21;;;;;;;;;;;19.00;58.50;;;;;;5052683;28;1242;-70
2022/05/10 06:09:47;;;;;;;;;;;19.00;58.50;;;;;;5052514;28;1407;-71
2022/05/10 06:12:16;;;;;;;;;;;19.00;58.60;;;;;;5052520;28;1939;-74
2022/05/10 06:14:41;;;;;;;;;;;18.90;58.50;;;;;;5052882;28;1104;-68
2022/05/10 06:17:07;;;;;;;;;;;19.00;58.50;;;;;;5052952;28;1333;-70
2022/05/10 06:19:32;;;;;;;;;;;18.90;58.50;;;;;;5053503;28;1102;-70
2022/05/10 06:21:58;;;;;;;;;;;18.90;58.50;;;;;;5053006;28;1274;-71
2022/05/10 06:24:23;;;;;;;;;;;18.90;58.50;;;;;;5051557;28;1183;-69
2022/05/10 06:26:49;;;;;;;;;;;18.90;58.60;;;;;;5044816;28;1311;-67
2022/05/10 06:29:14;;;;;;;;;;;18.90;58.50;;;;;;5051498;28;1377;-70
2022/05/10 06:31:41;;;;;;;;;;;19.00;58.60;;;;;;5053411;28;1279;-70
2022/05/10 06:34:06;;;;;;;;;;;19.00;58.60;;;;;;5052949;28;1910;-71
2022/05/10 06:36:32;;;;;;;;;;;18.90;58.60;;;;;;5072083;28;1288;-70
2022/05/10 06:38:57;;;;;;;;;;;19.00;58.60;;;;;;5056682;28;1351;-70
2022/05/10 06:41:23;;;;;;;;;;;18.90;58.60;;;;;;5053512;28;1382;-71
2022/05/10 06:43:49;;;;;;;;;;;19.00;58.60;;;;;;5054098;28;1357;-71
2022/05/10 06:46:15;;;;;;;;;;;18.90;58.60;;;;;;5054253;28;1279;-72
2022/05/10 06:48:40;;;;;;;;;;;19.00;58.70;;;;;;5049709;28;1719;-71
2022/05/10 06:51:06;;;;;;;;;;;18.90;58.60;;;;;;5032790;28;1351;-71
2022/05/10 06:53:32;;;;;;;;;;;18.90;58.60;;;;;;5052412;28;1902;-71
2022/05/10 06:55:57;;;;;;;;;;;19.00;58.70;;;;;;5052523;28;1102;-70
2022/05/10 06:58:22;;;;;;;;;;;19.00;58.70;;;;;;5068537;28;1356;-69
2022/05/10 07:00:48;;;;;;;;;;;18.90;58.60;;;;;;5071835;28;1305;-69
2022/05/10 07:03:14;;;;;;;;;;;19.00;58.70;;;;;;5057982;28;1421;-70
2022/05/10 07:05:40;;;;;;;;;;;19.00;58.70;;;;;;5052879;28;1299;-70
2022/05/10 07:08:06;;;;;;;;;;;18.90;58.60;;;;;;5048118;28;1287;-70
2022/05/10 07:10:34;;;;;;;;;;;18.90;58.70;;;;;;5052109;28;1566;-70
2022/05/10 07:12:59;;;;;;;;;;;19.00;58.70;;;;;;5052867;28;1969;-69
2022/05/10 07:15:25;;;;;;;;;;;18.90;58.70;;;;;;5053010;28;1280;-68
2022/05/10 07:17:50;;;;;;;;;;;18.90;58.70;;;;;;5053632;28;1291;-69
2022/05/10 07:20:17;;;;;;;;;;;18.90;58.70;;;;;;5052206;28;1268;-69
2022/05/10 07:22:43;;;;;;;;;;;19.00;58.80;;;;;;5048579;28;1275;-69
2022/05/10 07:25:08;;;;;;;;;;;18.90;58.70;;;;;;5044863;28;1292;-69
2022/05/10 07:27:33;;;;;;;;;;;18.90;58.70;;;;;;5038577;28;1266;-70
2022/05/10 07:29:59;;;;;;;;;;;18.90;58.70;;;;;;5051803;28;1262;-70
2022/05/10 07:32:25;;;;;;;;;;;18.90;58.70;;;;;;5052223;28;1963;-70
2022/05/10 07:34:50;;;;;;;;;;;18.90;58.70;;;;;;5052967;28;1074;-70
2022/05/10 07:37:16;;;;;;;;;;;18.90;58.70;;;;;;5047997;28;1357;-70
2022/05/10 07:39:41;;;;;;;;;;;18.90;58.70;;;;;;5051708;28;1289;-70
2022/05/10 07:42:07;;;;;;;;;;;18.90;58.70;;;;;;5048120;28;1935;-70
2022/05/10 07:44:32;;;;;;;;;;;18.90;58.70;;;;;;5052785;28;1222;-69
2022/05/10 07:46:58;;;;;;;;;;;18.90;58.70;;;;;;5055585;28;1307;-70
2022/05/10 07:49:23;;;;;;;;;;;19.00;58.80;;;;;;5044691;28;1362;-70
2022/05/10 07:51:49;;;;;;;;;;;18.90;58.80;;;;;;5038945;28;1282;-69
2022/05/10 07:54:14;;;;;;;;;;;19.00;58.80;;;;;;5054406;28;1894;-69
2022/05/10 07:56:41;;;;;;;;;;;19.00;58.80;;;;;;5051451;28;1361;-71
2022/05/10 07:59:06;;;;;;;;;;;19.00;58.80;;;;;;5074344;28;1265;-71
2022/05/10 08:01:32;;;;;;;;;;;18.90;58.80;;;;;;5055575;28;1351;-71
2022/05/10 08:03:57;;;;;;;;;;;19.00;58.80;;;;;;5055007;28;1410;-71
2022/05/10 08:06:22;;;;;;;;;;;18.90;58.80;;;;;;5055070;28;1297;-71
2022/05/10 08:08:49;;;;;;;;;;;18.90;58.80;;;;;;5045843;28;1272;-70
2022/05/10 08:11:14;;;;;;;;;;;19.00;58.90;;;;;;5040503;28;1650;-70
2022/05/10 08:13:41;;;;;;;;;;;18.90;58.80;;;;;;5056664;28;1905;-71
2022/05/10 08:16:08;;;;;;;;;;;18.90;58.80;;;;;;5071744;28;1339;-70
2022/05/10 08:18:35;;;;;;;;;;;18.90;58.80;;;;;;5055428;28;1044;-70
2022/05/10 08:21:00;;;;;;;;;;;18.90;58.80;;;;;;5053441;28;1258;-69
2022/05/10 08:23:27;;;;;;;;;;;18.90;58.80;;;;;;5053410;28;1145;-69
2022/05/10 08:25:54;;;;;;;;;;;18.90;58.90;;;;;;5052100;28;1215;-70
2022/05/10 08:28:20;;;;;;;;;;;19.00;58.90;;;;;;5044192;28;1048;-66
2022/05/10 08:30:46;;;;;;;;;;;19.00;58.90;;;;;;5042091;28;1272;-70
2022/05/10 08:33:23;;;;;;;;;;;18.90;58.90;;;;;;5047437;28;1993;-68
2022/05/10 08:35:48;;;;;;;;;;;19.00;58.90;;;;;;5058372;28;1238;-69
2022/05/10 08:38:14;;;;;;;;;;;18.90;58.90;;;;;;5049710;28;1342;-70
2022/05/10 08:40:47;;;;;;;;;;;19.00;58.90;;;;;;5041033;28;1361;-71
2022/05/10 08:43:17;;;;;;;;;;;19.00;59.00;;;;;;5049090;28;1563;-70
2022/05/10 08:45:43;;;;;;;;;;;18.90;58.90;;;;;;5057051;28;1395;-71
2022/05/10 08:48:09;;;;;;;;;;;18.90;58.90;;;;;;5055536;28;1369;-69
2022/05/10 08:50:35;;;;;;;;;;;19.00;58.90;;;;;;5054620;28;1275;-70
2022/05/10 08:53:01;;;;;;;;;;;18.90;58.90;;;;;;5055247;28;1894;-70
2022/05/10 08:55:27;;;;;;;;;;;19.00;58.90;;;;;;5055638;28;1461;-70
2022/05/10 08:57:53;;;;;;;;;;;18.90;58.90;;;;;;5067621;28;1115;-72
2022/05/10 09:00:27;;;;;;;;;;;18.90;58.90;;;;;;5038293;28;1396;-71
2022/05/10 09:02:54;;;;;;;;;;;19.00;59.00;;;;;;5056254;28;1403;-73
2022/05/10 09:05:38;;;;;;;;;;;19.00;59.00;;;;;;5061722;28;1168;-70
2022/05/10 09:08:06;;;;;;;;;;;18.90;58.90;;;;;;5048247;28;1206;-71
2022/05/10 09:10:35;;;;;;;;;;;18.90;58.90;;;;;;5048275;28;1568;-71
2022/05/10 09:13:04;;;;;;;;;;;18.90;58.90;;;;;;5057204;28;1906;-71
2022/05/10 09:15:32;;;;;;;;;;;18.90;58.90;;;;;;5046906;28;1401;-72
2022/05/10 09:17:58;;;;;;;;;;;19.00;59.00;;;;;;5056107;28;1569;-72
2022/05/10 09:20:23;;;;;;;;;;;18.90;58.90;;;;;;5074257;28;1246;-71
2022/05/10 09:22:49;;;;;;;;;;;19.00;59.00;;;;;;5057171;28;1366;-71
2022/05/10 09:25:17;;;;;;;;;;;19.00;59.20;;;;;;5075024;28;1297;-71
2022/05/10 09:27:42;;;;;;;;;;;19.00;59.00;;;;;;5057254;28;1329;-71
2022/05/10 09:30:08;;;;;;;;;;;18.90;59.00;;;;;;5074783;28;1266;-71
2022/05/10 09:35:22;;;;;;;;;;;19.00;59.00;;;;;;5046892;28;1230;-71
2022/05/10 09:37:47;;;;;;;;;;;18.90;59.00;;;;;;5053050;28;2096;-71
2022/05/10 09:40:32;;;;;;;;;;;19.00;59.00;;;;;;5063439;28;1258;-70
2022/05/10 09:43:25;;;;;;;;;;;19.00;59.00;;;;;;5078118;28;1375;-71
2022/05/10 09:46:04;;;;;;;;;;;19.00;59.00;;;;;;5057705;28;1352;-71
2022/05/10 09:48:29;;;;;;;;;;;19.00;59.00;;;;;;5051116;28;1105;-70
2022/05/10 09:50:54;;;;;;;;;;;19.00;59.00;;;;;;5075511;28;1126;-71
2022/05/10 09:53:23;;;;;;;;;;;19.00;59.00;;;;;;5050169;28;1910;-71
2022/05/10 09:56:00;;;;;;;;;;;18.90;59.60;;;;;;5056215;28;1275;-71
2022/05/10 09:58:45;;;;;;;;;;;18.90;59.00;;;;;;5072470;28;2046;-71
2022/05/10 10:01:11;;;;;;;;;;;18.90;59.00;;;;;;5062786;28;1540;-71
2022/05/10 10:03:38;;;;;;;;;;;18.90;59.00;;;;;;5079028;28;1976;-71
2022/05/10 10:06:12;;;;;;;;;;;18.90;59.00;;;;;;5049196;28;1671;-71
2022/05/10 10:08:39;;;;;;;;;;;19.00;59.10;;;;;;5067591;28;1606;-71
2022/05/10 10:11:09;;;;;;;;;;;19.00;59.10;;;;;;5067066;28;1655;-70
2022/05/10 10:13:37;;;;;;;;;;;19.00;59.10;;;;;;5052929;28;1910;-70
2022/05/10 10:16:02;;;;;;;;;;;18.90;59.00;;;;;;5053420;28;1661;-70
2022/05/10 10:18:40;;;;;;;;;;;18.90;59.00;;;;;;5048328;28;1413;-71
2022/05/10 10:21:05;;;;;;;;;;;19.00;59.10;;;;;;5069831;28;1599;-70
2022/05/10 10:23:36;;;;;;;;;;;19.00;59.10;;;;;;5056356;28;1381;-71
2022/05/10 10:26:17;;;;;;;;;;;18.90;59.00;;;;;;5054940;28;1568;-71
2022/05/10 10:28:46;;;;;;;;;;;18.90;59.00;;;;;;5064794;28;1603;-70
2022/05/10 10:31:14;;;;;;;;;;;19.00;59.10;;;;;;5055868;28;1686;-70
2022/05/10 10:33:47;;;;;;;;;;;18.90;59.10;;;;;;5053082;28;1945;-70
2022/05/10 10:36:14;;;;;;;;;;;18.90;59.10;;;;;;5055620;28;1820;-70
2022/05/10 10:38:40;;;;;;;;;;;18.90;59.10;;;;;;5042796;28;1725;-71
2022/05/10 10:41:08;;;;;;;;;;;19.00;59.10;;;;;;5052689;28;2113;-70
2022/05/10 10:43:39;;;;;;;;;;;19.00;59.10;;;;;;5055623;28;1604;-71
2022/05/10 10:46:24;;;;;;;;;;;18.90;59.10;;;;;;5056305;28;1686;-70
2022/05/10 10:48:58;;;;;;;;;;;18.90;59.10;;;;;;5038366;28;1588;-71
2022/05/10 10:51:26;;;;;;;;;;;19.00;59.10;;;;;;5046858;28;2438;-70
2022/05/10 10:53:51;;;;;;;;;;;19.00;59.10;;;;;;5060533;28;1902;-71
2022/05/10 10:56:25;;;;;;;;;;;19.00;59.10;;;;;;5051788;28;1277;-71
2022/05/10 10:59:00;;;;;;;;;;;19.00;59.10;;;;;;5054134;28;1107;-71
2022/05/10 11:01:31;;;;;;;;;;;19.00;59.10;;;;;;5072456;28;1391;-71
2022/05/10 11:03:59;;;;;;;;;;;18.90;59.10;;;;;;5063190;28;1266;-70
2022/05/10 11:06:25;;;;;;;;;;;18.90;59.10;;;;;;5074264;28;1333;-70
2022/05/10 11:09:06;;;;;;;;;;;19.00;59.20;;;;;;5056103;28;1264;-71
2022/05/10 11:11:49;;;;;;;;;;;19.00;59.20;;;;;;5065678;28;1355;-70
2022/05/10 11:14:22;;;;;;;;;;;19.00;59.20;;;;;;5062015;28;1894;-71
2022/05/10 11:16:58;;;;;;;;;;;19.00;59.20;;;;;;5041580;28;1267;-72
2022/05/10 11:19:49;;;;;;;;;;;19.00;59.20;;;;;;5054652;28;1138;-71
2022/05/10 11:22:34;;;;;;;;;;;19.00;59.20;;;;;;5036630;28;1402;-70
2022/05/10 11:25:06;;;;;;;;;;;18.90;59.20;;;;;;5059919;28;1284;-71
2022/05/10 11:27:32;;;;;;;;;;;19.00;59.20;;;;;;5055619;28;1285;-71
2022/05/10 11:30:00;;;;;;;;;;;19.00;59.20;;;;;;5072106;28;1314;-70
2022/05/10 11:32:28;;;;;;;;;;;18.90;59.20;;;;;;5077628;28;2384;-71
2022/05/10 11:35:03;;;;;;;;;;;19.00;59.20;;;;;;5074238;28;1525;-70
2022/05/10 11:37:32;;;;;;;;;;;19.00;59.20;;;;;;5081533;28;1281;-70
2022/05/10 11:40:04;;;;;;;;;;;19.00;59.20;;;;;;5054903;28;1149;-71
2022/05/10 11:42:34;;;;;;;;;;;19.00;59.20;;;;;;5050512;28;2588;-71
2022/05/10 11:45:20;;;;;;;;;;;19.00;59.20;;;;;;5054375;28;1488;-71
2022/05/10 11:47:52;;;;;;;;;;;18.90;59.20;;;;;;5049212;28;2378;-72
2022/05/10 11:50:17;;;;;;;;;;;19.00;59.20;;;;;;5073808;28;1293;-72
2022/05/10 11:52:43;;;;;;;;;;;19.00;59.20;;;;;;5060943;28;1894;-71
2022/05/10 11:55:21;;;;;;;;;;;19.00;59.30;;;;;;5067898;28;1106;-71
2022/05/10 11:57:46;;;;;;;;;;;19.00;59.20;;;;;;5035182;28;1223;-71
2022/05/10 12:00:27;;;;;;;;;;;19.00;59.20;;;;;;5080810;28;1246;-72
2022/05/10 12:02:56;;;;;;;;;;;19.00;59.20;;;;;;5069077;28;1307;-72
2022/05/10 12:05:24;;;;;;;;;;;19.00;59.30;;;;;;5066328;28;1258;-72
2022/05/10 12:07:49;;;;;;;;;;;19.00;59.20;;;;;;5063717;28;2074;-70
2022/05/10 12:10:21;;;;;;;;;;;19.00;59.30;;;;;;5053153;28;2034;-71
2022/05/10 12:12:46;;;;;;;;;;;19.00;59.30;;;;;;5050515;28;1964;-69
2022/05/10 12:21:20;;;;;;;;;;;19.00;59.30;;;;;;5064868;28;1069;-69
2022/05/10 12:23:57;;;;;;;;;;;19.00;59.30;;;;;;5061587;28;1887;-73
2022/05/10 12:26:49;;;;;;;;;;;19.00;59.30;;;;;;5061035;28;1303;-71
2022/05/10 12:29:36;;;;;;;;;;;19.00;59.30;;;;;;5052562;28;1329;-71
2022/05/10 12:32:03;;;;;;;;;;;19.00;59.30;;;;;;5046348;28;2219;-70
2022/05/10 12:34:39;;;;;;;;;;;19.00;59.80;;;;;;5066889;28;1989;-71
2022/05/10 12:37:26;;;;;;;;;;;19.00;59.80;;;;;;5070360;28;1890;-71
2022/05/10 12:39:52;;;;;;;;;;;19.00;59.70;;;;;;5071269;28;1389;-71
2022/05/10 12:42:20;;;;;;;;;;;19.10;59.70;;;;;;5053584;28;1443;-71
2022/05/10 12:45:04;;;;;;;;;;;19.10;59.70;;;;;;5066849;28;1483;-71
2022/05/10 12:47:51;;;;;;;;;;;19.00;59.70;;;;;;5063911;28;1652;-70
2022/05/10 12:50:30;;;;;;;;;;;19.00;59.70;;;;;;5049447;28;1403;-70
2022/05/10 12:52:56;;;;;;;;;;;19.00;59.70;;;;;;5055461;28;1894;-70
2022/05/10 12:55:25;;;;;;;;;;;19.00;59.70;;;;;;5057663;28;1369;-70
2022/05/10 12:58:01;;;;;;;;;;;19.10;59.70;;;;;;5066411;28;1479;-70
2022/05/10 13:00:28;;;;;;;;;;;19.00;59.70;;;;;;5073656;28;1739;-71
2022/05/10 13:03:04;;;;;;;;;;;19.00;59.60;;;;;;5048416;28;1748;-71
2022/05/10 13:05:40;;;;;;;;;;;19.00;59.70;;;;;;5043370;28;1445;-69
2022/05/10 13:08:09;;;;;;;;;;;19.00;59.70;;;;;;5061990;28;1425;-69
2022/05/10 13:10:34;;;;;;;;;;;19.00;59.70;;;;;;5060954;28;1489;-71
2022/05/10 13:13:03;;;;;;;;;;;19.00;59.60;;;;;;5064281;28;1969;-70
2022/05/10 13:15:29;;;;;;;;;;;19.00;59.70;;;;;;5064301;28;1579;-70
2022/05/10 13:17:55;;;;;;;;;;;19.00;59.60;;;;;;5064264;28;1491;-72
2022/05/10 13:20:25;;;;;;;;;;;19.00;59.60;;;;;;5065280;28;1334;-70
2022/05/10 13:22:55;;;;;;;;;;;19.00;59.70;;;;;;5045219;28;1512;-69
2022/05/10 13:25:36;;;;;;;;;;;19.00;59.60;;;;;;5057710;28;2117;-69
2022/05/10 13:28:08;;;;;;;;;;;19.00;59.60;;;;;;5054751;28;1598;-70
2022/05/10 13:30:34;;;;;;;;;;;19.00;59.60;;;;;;5065547;28;1578;-69
2022/05/10 13:33:00;;;;;;;;;;;19.00;59.60;;;;;;5047896;28;2244;-68
2022/05/10 13:35:30;;;;;;;;;;;19.00;59.60;;;;;;5078001;28;2911;-69
2022/05/10 13:38:05;;;;;;;;;;;19.00;59.60;;;;;;5050756;28;2283;-69
2022/05/10 13:40:42;;;;;;;;;;;19.00;59.70;;;;;;5052610;28;1300;-70
2022/05/10 13:43:09;;;;;;;;;;;19.00;59.90;;;;;;5059957;28;1558;-69
2022/05/10 13:45:35;;;;;;;;;;;19.10;60.10;;;;;;5050571;28;1409;-69
2022/05/10 13:48:01;;;;;;;;;;;19.10;60.30;;;;;;5058114;28;1810;-68
2022/05/10 13:50:27;;;;;;;;;;;19.10;60.40;;;;;;5050201;28;1828;-69
2022/05/10 13:52:56;;;;;;;;;;;19.20;60.50;;;;;;5071214;28;2029;-69
2022/05/10 13:55:22;;;;;;;;;;;19.20;60.70;;;;;;5049283;28;2354;-69
2022/05/10 13:57:48;;;;;;;;;;;19.20;60.50;;;;;;5052210;28;1277;-69
2022/05/10 14:00:14;;;;;;;;;;;19.20;60.40;;;;;;5037264;28;1318;-69
2022/05/10 14:02:40;;;;;;;;;;;19.20;60.30;;;;;;5064831;28;1353;-69
2022/05/10 14:05:11;;;;;;;;;;;19.20;60.20;;;;;;5056078;28;1381;-68
2022/05/10 14:07:37;;;;;;;;;;;19.20;60.10;;;;;;5047546;28;2202;-68
2022/05/10 14:10:10;;;;;;;;;;;19.20;60.20;;;;;;5053015;28;1606;-69
2022/05/10 14:12:36;;;;;;;;;;;19.20;60.40;;;;;;5050543;28;1906;-71
2022/05/10 14:15:08;;;;;;;;;;;19.20;60.50;;;;;;5069914;28;1413;-70
2022/05/10 14:17:33;;;;;;;;;;;19.20;60.60;;;;;;5060882;28;1351;-70
2022/05/10 14:19:59;;;;;;;;;;;19.30;60.80;;;;;;5053088;28;1432;-71
2022/05/10 14:22:24;;;;;;;;;;;19.30;60.80;;;;;;5049210;28;1458;-71
2022/05/10 14:24:50;;;;;;;;;;;19.30;60.90;;;;;;5054153;28;1667;-71
2022/05/10 14:27:18;;;;;;;;;;;19.30;61.00;;;;;;5046396;28;1889;-70
2022/05/10 14:29:45;;;;;;;;;;;19.30;60.90;;;;;;5048381;28;1345;-71
2022/05/10 14:32:31;;;;;;;;;;;19.40;61.10;;;;;;5070341;28;1977;-71
2022/05/10 14:34:57;;;;;;;;;;;19.40;61.30;;;;;;5056937;28;1262;-71
2022/05/10 14:37:29;;;;;;;;;;;19.40;60.90;;;;;;5068387;28;2534;-71
2022/05/10 14:39:55;;;;;;;;;;;19.40;60.60;;;;;;5068934;28;1220;-70
2022/05/10 14:42:21;;;;;;;;;;;19.40;60.30;;;;;;5046308;28;1283;-72
2022/05/10 14:44:46;;;;;;;;;;;19.40;60.20;;;;;;5045330;28;1187;-71
2022/05/10 14:47:24;;;;;;;;;;;19.40;60.20;;;;;;5063227;28;1297;-71
2022/05/10 14:49:50;;;;;;;;;;;19.30;60.20;;;;;;5051844;28;1776;-72
2022/05/10 14:52:23;;;;;;;;;;;19.30;60.20;;;;;;5058543;28;1899;-72
2022/05/10 14:54:48;;;;;;;;;;;19.30;60.20;;;;;;5068029;28;1255;-72